CFGMU CYGD-CYSA
Flight info
| Callsign | CFGMU |
|---|---|
| Flight time | 0h 31m |
| Altitude | |
| Route | |
| Aircraft | C208 |
Departure
| Time | 2026-04-25 00:38 |
|---|---|
| Airport | Goderich Airport (CYGD) |
Arrival
| Time | 2026-04-25 01:10 |
|---|---|
| Airport | Stratford Municipal Airport (CYSA) |
| Time | Latitude | Longitude | Altitude | Speed | Heading |
|---|---|---|---|---|---|
| 2026-04-25 00:38 | 43.68574 | -81.53119 | 4501 ft | 141 kts | 220° |
| 2026-04-25 00:38 | 43.67585 | -81.53344 | 4500 ft | 156 kts | 175° |
| 2026-04-25 00:39 | 43.66919 | -81.52860 | 4503 ft | 167 kts | 145° |
| 2026-04-25 00:39 | 43.66361 | -81.51426 | 4501 ft | 177 kts | 101° |
| 2026-04-25 00:39 | 43.66375 | -81.49725 | 4526 ft | 178 kts | 87° |
| 2026-04-25 00:39 | 43.66675 | -81.47532 | 4512 ft | 176 kts | 57° |
| 2026-04-25 00:40 | 43.67234 | -81.46728 | 4514 ft | 170 kts | 26° |
| 2026-04-25 00:40 | 43.68301 | -81.46409 | 4515 ft | 155 kts | 343° |
| 2026-04-25 00:40 | 43.69144 | -81.47134 | 4520 ft | 140 kts | 298° |
| 2026-04-25 00:40 | 43.69330 | -81.48389 | 4520 ft | 134 kts | 266° |
| 2026-04-25 00:41 | 43.69278 | -81.49674 | 4525 ft | 134 kts | 266° |
| 2026-04-25 00:41 | 43.69209 | -81.51057 | 4523 ft | 154 kts | 264° |
| 2026-04-25 00:41 | 43.69089 | -81.52591 | 4524 ft | 165 kts | 264° |
| 2026-04-25 00:41 | 43.68935 | -81.54119 | 4518 ft | 154 kts | 255° |
| 2026-04-25 00:42 | 43.68283 | -81.55226 | 4499 ft | 154 kts | 214° |
| 2026-04-25 00:42 | 43.67200 | -81.55376 | 4502 ft | 168 kts | 172° |
| 2026-04-25 00:42 | 43.66185 | -81.54416 | 4504 ft | 190 kts | 133° |
| 2026-04-25 00:42 | 43.65708 | -81.52675 | 4504 ft | 201 kts | 97° |
| 2026-04-25 00:43 | 43.65701 | -81.50738 | 4517 ft | 202 kts | 90° |
| 2026-04-25 00:43 | 43.65759 | -81.48801 | 4533 ft | 202 kts | 80° |
| 2026-04-25 00:43 | 43.66372 | -81.47095 | 4515 ft | 198 kts | 43° |
| 2026-04-25 00:43 | 43.67523 | -81.46197 | 4523 ft | 187 kts | 5° |
| 2026-04-25 00:44 | 43.68747 | -81.46387 | 4521 ft | 173 kts | 328° |
| 2026-04-25 00:44 | 43.69550 | -81.47501 | 4518 ft | 162 kts | 291° |
| 2026-04-25 00:44 | 43.69674 | -81.49006 | 4523 ft | 158 kts | 265° |
| 2026-04-25 00:44 | 43.69576 | -81.50522 | 4526 ft | 158 kts | 265° |
| 2026-04-25 00:45 | 43.69477 | -81.52036 | 4516 ft | 158 kts | 265° |
| 2026-04-25 00:45 | 43.69372 | -81.53536 | 4516 ft | 159 kts | 264° |
| 2026-04-25 00:45 | 43.69265 | -81.55058 | 4516 ft | 159 kts | 264° |
| 2026-04-25 00:45 | 43.69162 | -81.56577 | 4514 ft | 159 kts | 264° |
| 2026-04-25 00:46 | 43.69059 | -81.58096 | 4519 ft | 159 kts | 265° |
| 2026-04-25 00:46 | 43.68948 | -81.59628 | 4517 ft | 160 kts | 265° |
| 2026-04-25 00:46 | 43.68717 | -81.62682 | 4522 ft | 160 kts | 264° |
| 2026-04-25 00:47 | 43.68612 | -81.64216 | 4519 ft | 160 kts | 264° |
| 2026-04-25 00:47 | 43.68414 | -81.65728 | 4520 ft | 162 kts | 248° |
| 2026-04-25 00:47 | 43.67613 | -81.66819 | 4500 ft | 169 kts | 211° |
| 2026-04-25 00:47 | 43.66424 | -81.66952 | 4500 ft | 181 kts | 174° |
| 2026-04-25 00:48 | 43.65331 | -81.66002 | 4499 ft | 195 kts | 137° |
| 2026-04-25 00:48 | 43.64789 | -81.64270 | 4505 ft | 201 kts | 99° |
| 2026-04-25 00:48 | 43.64831 | -81.62352 | 4508 ft | 200 kts | 86° |
| 2026-04-25 00:48 | 43.64949 | -81.60441 | 4509 ft | 199 kts | 86° |
| 2026-04-25 00:49 | 43.65068 | -81.58537 | 4503 ft | 199 kts | 85° |
| 2026-04-25 00:49 | 43.65294 | -81.56661 | 4498 ft | 198 kts | 67° |
| 2026-04-25 00:49 | 43.66140 | -81.55225 | 4502 ft | 192 kts | 28° |
| 2026-04-25 00:49 | 43.67359 | -81.54751 | 4500 ft | 178 kts | 351° |
| 2026-04-25 00:50 | 43.68439 | -81.55354 | 4502 ft | 164 kts | 313° |
| 2026-04-25 00:50 | 43.68931 | -81.56684 | 4503 ft | 156 kts | 275° |
| 2026-04-25 00:50 | 43.68867 | -81.58172 | 4513 ft | 155 kts | 264° |
| 2026-04-25 00:50 | 43.68739 | -81.59654 | 4514 ft | 156 kts | 264° |
| 2026-04-25 00:51 | 43.68420 | -81.61061 | 4625 ft | 158 kts | 238° |
| 2026-04-25 00:51 | 43.67477 | -81.61898 | 4814 ft | 165 kts | 200° |
| 2026-04-25 00:51 | 43.66305 | -81.61681 | 4977 ft | 182 kts | 162° |
| 2026-04-25 00:51 | 43.65323 | -81.60606 | 5004 ft | 181 kts | 130° |
| 2026-04-25 00:52 | 43.64754 | -81.59042 | 5013 ft | 194 kts | 117° |
| 2026-04-25 00:52 | 43.64183 | -81.57286 | 5025 ft | 205 kts | 119° |
| 2026-04-25 00:52 | 43.63558 | -81.55478 | 5023 ft | 211 kts | 120° |
| 2026-04-25 00:52 | 43.63011 | -81.53583 | 5014 ft | 216 kts | 103° |
| 2026-04-25 00:53 | 43.63066 | -81.51508 | 5008 ft | 215 kts | 80° |
| 2026-04-25 00:53 | 43.63356 | -81.49538 | 5021 ft | 203 kts | 77° |
| 2026-04-25 00:53 | 43.63652 | -81.47677 | 5020 ft | 195 kts | 77° |
| 2026-04-25 00:53 | 43.63879 | -81.45856 | 5021 ft | 191 kts | 85° |
| 2026-04-25 00:54 | 43.63702 | -81.44080 | 5023 ft | 188 kts | 120° |
| 2026-04-25 00:54 | 43.62779 | -81.42906 | 5023 ft | 179 kts | 163° |
| 2026-04-25 00:54 | 43.61619 | -81.42280 | 5029 ft | 181 kts | 161° |
| 2026-04-25 00:54 | 43.60508 | -81.41427 | 5036 ft | 184 kts | 156° |
| 2026-04-25 00:55 | 43.59401 | -81.40534 | 5042 ft | 184 kts | 157° |
| 2026-04-25 00:55 | 43.58287 | -81.39659 | 5040 ft | 184 kts | 157° |
| 2026-04-25 00:55 | 43.57176 | -81.38790 | 5040 ft | 184 kts | 157° |
| 2026-04-25 00:55 | 43.56065 | -81.37922 | 5039 ft | 183 kts | 157° |
| 2026-04-25 00:56 | 43.54955 | -81.37057 | 5036 ft | 181 kts | 157° |
| 2026-04-25 00:56 | 43.53896 | -81.36221 | 5028 ft | 175 kts | 157° |
| 2026-04-25 00:56 | 43.52849 | -81.35400 | 5037 ft | 172 kts | 158° |
| 2026-04-25 00:56 | 43.51819 | -81.34597 | 4960 ft | 161 kts | 158° |
| 2026-04-25 00:57 | 43.50917 | -81.33867 | 4745 ft | 141 kts | 158° |
| 2026-04-25 00:57 | 43.50095 | -81.33215 | 4532 ft | 132 kts | 159° |
| 2026-04-25 00:57 | 43.49308 | -81.32604 | 4330 ft | 128 kts | 160° |
| 2026-04-25 00:57 | 43.48536 | -81.32005 | 4134 ft | 127 kts | 160° |
| 2026-04-25 00:58 | 43.47792 | -81.31423 | 4038 ft | 116 kts | 161° |
| 2026-04-25 00:58 | 43.47126 | -81.30898 | 4034 ft | 105 kts | 162° |
| 2026-04-25 00:58 | 43.46511 | -81.30416 | 4034 ft | 99 kts | 163° |
| 2026-04-25 00:58 | 43.45920 | -81.29958 | 3976 ft | 102 kts | 163° |
| 2026-04-25 00:59 | 43.45240 | -81.29455 | 3752 ft | 117 kts | 161° |
| 2026-04-25 00:59 | 43.44512 | -81.28893 | 3541 ft | 122 kts | 160° |
| 2026-04-25 00:59 | 43.43767 | -81.28310 | 3320 ft | 124 kts | 160° |
| 2026-04-25 00:59 | 43.43022 | -81.27728 | 3088 ft | 122 kts | 159° |
| 2026-04-25 01:00 | 43.42303 | -81.27167 | 2957 ft | 112 kts | 157° |
| 2026-04-25 01:00 | 43.41660 | -81.26656 | 2938 ft | 102 kts | 159° |
| 2026-04-25 01:00 | 43.41070 | -81.26195 | 2939 ft | 94 kts | 160° |
| 2026-04-25 01:00 | 43.40510 | -81.25761 | 2940 ft | 91 kts | 161° |
| 2026-04-25 01:01 | 43.39968 | -81.25340 | 2936 ft | 88 kts | 161° |
| 2026-04-25 01:01 | 43.39326 | -81.24874 | 3003 ft | 123 kts | 160° |
| 2026-04-25 01:01 | 43.38501 | -81.24267 | 3160 ft | 146 kts | 159° |
| 2026-04-25 01:01 | 43.37554 | -81.23550 | 3186 ft | 166 kts | 158° |
| 2026-04-25 01:02 | 43.36503 | -81.22730 | 3123 ft | 180 kts | 157° |
| 2026-04-25 01:02 | 43.35399 | -81.21866 | 3034 ft | 185 kts | 156° |
| 2026-04-25 01:02 | 43.34346 | -81.21026 | 2953 ft | 166 kts | 157° |
| 2026-04-25 01:02 | 43.33397 | -81.20168 | 2955 ft | 165 kts | 144° |
| 2026-04-25 01:03 | 43.32638 | -81.19003 | 2951 ft | 162 kts | 140° |
| 2026-04-25 01:03 | 43.31882 | -81.17871 | 2950 ft | 160 kts | 140° |
| 2026-04-25 01:03 | 43.31132 | -81.16757 | 2950 ft | 158 kts | 140° |
| 2026-04-25 01:03 | 43.30388 | -81.15639 | 2950 ft | 159 kts | 138° |
| 2026-04-25 01:04 | 43.29643 | -81.14517 | 2950 ft | 159 kts | 139° |
| 2026-04-25 01:04 | 43.28902 | -81.13398 | 2947 ft | 158 kts | 139° |
| 2026-04-25 01:04 | 43.28382 | -81.12046 | 2949 ft | 167 kts | 107° |
| 2026-04-25 01:04 | 43.28415 | -81.10438 | 2949 ft | 173 kts | 75° |
| 2026-04-25 01:05 | 43.29029 | -81.09042 | 2948 ft | 173 kts | 44° |
| 2026-04-25 01:05 | 43.29931 | -81.07950 | 2957 ft | 174 kts | 40° |
| 2026-04-25 01:05 | 43.30835 | -81.06831 | 2961 ft | 175 kts | 41° |
| 2026-04-25 01:05 | 43.31733 | -81.05702 | 2971 ft | 175 kts | 41° |
| 2026-04-25 01:06 | 43.32631 | -81.04579 | 2974 ft | 175 kts | 41° |
| 2026-04-25 01:06 | 43.33529 | -81.03451 | 2977 ft | 174 kts | 41° |
| 2026-04-25 01:06 | 43.34419 | -81.02333 | 2978 ft | 174 kts | 41° |
| 2026-04-25 01:06 | 43.35277 | -81.01267 | 2841 ft | 151 kts | 43° |
| 2026-04-25 01:07 | 43.35988 | -81.00389 | 2651 ft | 127 kts | 44° |
| 2026-04-25 01:07 | 43.36604 | -80.99626 | 2487 ft | 113 kts | 49° |
| 2026-04-25 01:07 | 43.37160 | -80.98935 | 2348 ft | 101 kts | 53° |
| 2026-04-25 01:07 | 43.37641 | -80.98329 | 2216 ft | 90 kts | 54° |
| 2026-04-25 01:08 | 43.38068 | -80.97790 | 2117 ft | 81 kts | 57° |
| 2026-04-25 01:08 | 43.38487 | -80.97192 | 2070 ft | 89 kts | 57° |
| 2026-04-25 01:08 | 43.38973 | -80.96637 | 1952 ft | 90 kts | 47° |
| 2026-04-25 01:08 | 43.39426 | -80.96139 | 1802 ft | 77 kts | 48° |
| 2026-04-25 01:09 | 43.39796 | -80.95597 | 1667 ft | 81 kts | 58° |
| 2026-04-25 01:09 | 43.40210 | -80.95085 | 1534 ft | 75 kts | 45° |
| 2026-04-25 01:09 | 43.40592 | -80.94616 | 1414 ft | 76 kts | 43° |
| 2026-04-25 01:09 | 43.40978 | -80.94123 | 1290 ft | 76 kts | 46° |
| 2026-04-25 01:10 | 43.41309 | -80.93713 | 1216 ft | 52 kts | 46° |
| 2026-04-25 01:10 | 43.41440 | -80.93518 | 1213 ft | 12 kts | 50° |
| 2026-04-25 01:10 | 43.41393 | -80.93601 | 1213 ft | 26 kts | 219° |
| 2026-04-25 01:10 | 43.41266 | -80.93756 | 1215 ft | 21 kts | 223° |
| 2026-04-25 01:11 | 43.41150 | -80.93815 | 1215 ft | 18 kts | 166° |
| 2026-04-25 01:11 | 43.41056 | -80.93782 | 1214 ft | 11 kts | 165° |
| 2026-04-25 01:11 | 43.41002 | -80.93753 | 1214 ft | 9 kts | 345° |
| 2026-04-25 01:11 | 43.41143 | -80.93813 | 1215 ft | 27 kts | 343° |
| 2026-04-25 01:12 | 43.41237 | -80.93792 | 1216 ft | 19 kts | 41° |
| 2026-04-25 01:12 | 43.41522 | -80.93439 | 1255 ft | 85 kts | 52° |
| 2026-04-25 01:12 | 43.41925 | -80.92701 | 1559 ft | 103 kts | 78° |
| 2026-04-25 01:12 | 43.41752 | -80.91788 | 1986 ft | 108 kts | 138° |
| 2026-04-25 01:13 | 43.40992 | -80.91808 | 2400 ft | 125 kts | 204° |
| 2026-04-25 01:13 | 43.40286 | -80.92540 | 2808 ft | 130 kts | 227° |
| 2026-04-25 01:13 | 43.39763 | -80.93598 | 3102 ft | 135 kts | 242° |
| 2026-04-25 01:13 | 43.39410 | -80.94809 | 3389 ft | 137 kts | 251° |
| 2026-04-25 01:14 | 43.39118 | -80.96059 | 3590 ft | 144 kts | 253° |
| 2026-04-25 01:14 | 43.38557 | -80.97229 | 3768 ft | 147 kts | 233° |
| 2026-04-25 01:14 | 43.37901 | -80.98302 | 4018 ft | 146 kts | 233° |
| 2026-04-25 01:14 | 43.37247 | -80.99361 | 4272 ft | 146 kts | 233° |
| 2026-04-25 01:15 | 43.36587 | -81.00423 | 4529 ft | 146 kts | 234° |
| 2026-04-25 01:15 | 43.35907 | -81.01503 | 4578 ft | 156 kts | 233° |
| 2026-04-25 01:15 | 43.35186 | -81.02666 | 4588 ft | 162 kts | 234° |
| 2026-04-25 01:15 | 43.34441 | -81.03860 | 4588 ft | 166 kts | 233° |
| 2026-04-25 01:16 | 43.33679 | -81.05067 | 4587 ft | 168 kts | 233° |
| 2026-04-25 01:16 | 43.32919 | -81.06284 | 4575 ft | 168 kts | 233° |
| 2026-04-25 01:16 | 43.32154 | -81.07508 | 4573 ft | 169 kts | 233° |
| 2026-04-25 01:16 | 43.31390 | -81.08735 | 4574 ft | 169 kts | 233° |
| 2026-04-25 01:17 | 43.30624 | -81.09965 | 4573 ft | 169 kts | 233° |
| 2026-04-25 01:17 | 43.30119 | -81.10779 | 4570 ft | 170 kts | 234° |
| 2026-04-25 01:17 | 43.29328 | -81.12592 | 4569 ft | 165 kts | 261° |
| 2026-04-25 01:17 | 43.29153 | -81.14096 | 4795 ft | 155 kts | 258° |
| 2026-04-25 01:18 | 43.28867 | -81.15493 | 5021 ft | 150 kts | 254° |
| 2026-04-25 01:18 | 43.28550 | -81.16842 | 5259 ft | 147 kts | 253° |
| 2026-04-25 01:18 | 43.28228 | -81.18168 | 5501 ft | 146 kts | 253° |
| 2026-04-25 01:18 | 43.27909 | -81.19483 | 5746 ft | 145 kts | 253° |
| 2026-04-25 01:19 | 43.27589 | -81.20793 | 5990 ft | 145 kts | 254° |
| 2026-04-25 01:19 | 43.27269 | -81.22102 | 6229 ft | 144 kts | 253° |
| 2026-04-25 01:19 | 43.26949 | -81.23408 | 6467 ft | 145 kts | 254° |
| 2026-04-25 01:19 | 43.26629 | -81.24718 | 6707 ft | 145 kts | 254° |
| 2026-04-25 01:20 | 43.26308 | -81.26028 | 6945 ft | 145 kts | 253° |
| 2026-04-25 01:20 | 43.25986 | -81.27341 | 7186 ft | 145 kts | 253° |
| 2026-04-25 01:20 | 43.25664 | -81.28654 | 7440 ft | 145 kts | 253° |
| 2026-04-25 01:20 | 43.25343 | -81.29966 | 7685 ft | 145 kts | 253° |
| 2026-04-25 01:21 | 43.25020 | -81.31276 | 7933 ft | 145 kts | 253° |
| 2026-04-25 01:21 | 43.24698 | -81.32587 | 8177 ft | 145 kts | 252° |
| 2026-04-25 01:21 | 43.24380 | -81.33879 | 8424 ft | 145 kts | 252° |
| 2026-04-25 01:21 | 43.24055 | -81.35205 | 8553 ft | 152 kts | 252° |
| 2026-04-25 01:22 | 43.23704 | -81.36637 | 8563 ft | 160 kts | 252° |
| 2026-04-25 01:22 | 43.23342 | -81.38104 | 8563 ft | 164 kts | 252° |
| 2026-04-25 01:22 | 43.22978 | -81.39577 | 8563 ft | 167 kts | 252° |
| 2026-04-25 01:22 | 43.22605 | -81.41088 | 8564 ft | 168 kts | 252° |
| 2026-04-25 01:23 | 43.22230 | -81.42606 | 8563 ft | 169 kts | 252° |
| 2026-04-25 01:23 | 43.21855 | -81.44125 | 8563 ft | 168 kts | 252° |
| 2026-04-25 01:23 | 43.21478 | -81.45649 | 8561 ft | 168 kts | 252° |
| 2026-04-25 01:23 | 43.21101 | -81.47171 | 8561 ft | 169 kts | 252° |
| 2026-04-25 01:24 | 43.20724 | -81.48698 | 8560 ft | 169 kts | 252° |
| 2026-04-25 01:24 | 43.20345 | -81.50225 | 8560 ft | 169 kts | 252° |
| 2026-04-25 01:24 | 43.19966 | -81.51755 | 8549 ft | 169 kts | 252° |
| 2026-04-25 01:24 | 43.19588 | -81.53280 | 8549 ft | 169 kts | 252° |
| 2026-04-25 01:25 | 43.19208 | -81.54801 | 8549 ft | 168 kts | 251° |
| 2026-04-25 01:25 | 43.18489 | -81.56057 | 8535 ft | 174 kts | 218° |
| 2026-04-25 01:25 | 43.17292 | -81.56454 | 8528 ft | 187 kts | 182° |
| 2026-04-25 01:25 | 43.16067 | -81.55763 | 8540 ft | 200 kts | 147° |
| 2026-04-25 01:26 | 43.15471 | -81.54780 | 8541 ft | 207 kts | 124° |
| 2026-04-25 01:26 | 43.15211 | -81.52189 | 8536 ft | 214 kts | 77° |
| 2026-04-25 01:26 | 43.15910 | -81.50433 | 8546 ft | 211 kts | 43° |
| 2026-04-25 01:26 | 43.17088 | -81.49294 | 8545 ft | 206 kts | 25° |
| 2026-04-25 01:27 | 43.17931 | -81.48646 | 8555 ft | 206 kts | 24° |
| 2026-04-25 01:27 | 43.19185 | -81.47702 | 8557 ft | 206 kts | 24° |
| 2026-04-25 01:27 | 43.20443 | -81.46760 | 8557 ft | 206 kts | 24° |
| 2026-04-25 01:28 | 43.22023 | -81.43688 | 8548 ft | 214 kts | 92° |
| 2026-04-25 01:28 | 43.21537 | -81.41841 | 8552 ft | 205 kts | 135° |
| 2026-04-25 01:28 | 43.20388 | -81.40883 | 8553 ft | 189 kts | 176° |
| 2026-04-25 01:28 | 43.19180 | -81.41188 | 8546 ft | 174 kts | 218° |
| 2026-04-25 01:29 | 43.18542 | -81.42500 | 8562 ft | 168 kts | 260° |
| 2026-04-25 01:29 | 43.18820 | -81.44041 | 8566 ft | 176 kts | 302° |
| 2026-04-25 01:29 | 43.19776 | -81.45143 | 8565 ft | 182 kts | 319° |
| 2026-04-25 01:29 | 43.20822 | -81.46129 | 8563 ft | 183 kts | 320° |
| 2026-04-25 01:30 | 43.21869 | -81.47112 | 8563 ft | 182 kts | 320° |
| 2026-04-25 01:30 | 43.22917 | -81.48093 | 8564 ft | 182 kts | 320° |
| 2026-04-25 01:30 | 43.23919 | -81.49128 | 8519 ft | 178 kts | 304° |
| 2026-04-25 01:30 | 43.24177 | -81.50670 | 8443 ft | 172 kts | 248° |
| 2026-04-25 01:31 | 43.23137 | -81.51348 | 8452 ft | 190 kts | 176° |
| 2026-04-25 01:31 | 43.21980 | -81.50317 | 8099 ft | 204 kts | 147° |
| 2026-04-25 01:31 | 43.20933 | -81.49339 | 7675 ft | 165 kts | 154° |
| 2026-04-25 01:31 | 43.19964 | -81.48427 | 7308 ft | 184 kts | 153° |
| 2026-04-25 01:32 | 43.18828 | -81.47410 | 7024 ft | 203 kts | 153° |
| 2026-04-25 01:32 | 43.17653 | -81.46340 | 6758 ft | 196 kts | 152° |
| 2026-04-25 01:32 | 43.16545 | -81.45350 | 6344 ft | 189 kts | 153° |
| 2026-04-25 01:32 | 43.15442 | -81.44316 | 5877 ft | 193 kts | 152° |
| 2026-04-25 01:33 | 43.14345 | -81.43339 | 5656 ft | 185 kts | 156° |
| 2026-04-25 01:33 | 43.13246 | -81.42506 | 5508 ft | 177 kts | 159° |
| 2026-04-25 01:33 | 43.12147 | -81.41749 | 5426 ft | 182 kts | 161° |
| 2026-04-25 01:33 | 43.11039 | -81.40873 | 5430 ft | 189 kts | 146° |
| 2026-04-25 01:34 | 43.10129 | -81.39569 | 5389 ft | 188 kts | 138° |
| 2026-04-25 01:34 | 43.09271 | -81.38206 | 5248 ft | 186 kts | 141° |
| 2026-04-25 01:34 | 43.08253 | -81.37230 | 5129 ft | 178 kts | 163° |
| 2026-04-25 01:34 | 43.07068 | -81.36637 | 4739 ft | 185 kts | 171° |
| 2026-04-25 01:35 | 43.05843 | -81.36177 | 4505 ft | 180 kts | 175° |
| 2026-04-25 01:35 | 43.04650 | -81.35745 | 4148 ft | 171 kts | 175° |
| 2026-04-25 01:35 | 43.03510 | -81.35487 | 3912 ft | 166 kts | 181° |
| 2026-04-25 01:35 | 43.02360 | -81.35348 | 3681 ft | 163 kts | 184° |
| 2026-04-25 01:36 | 43.01252 | -81.35279 | 3530 ft | 149 kts | 186° |
| 2026-04-25 01:36 | 43.00303 | -81.35248 | 3156 ft | 144 kts | 185° |
| 2026-04-25 01:36 | 42.99211 | -81.35143 | 3034 ft | 172 kts | 165° |
| 2026-04-25 01:36 | 42.98722 | -81.33668 | 3102 ft | 191 kts | 82° |
| 2026-04-25 01:37 | 42.98948 | -81.32338 | 4082 ft | 149 kts | 81° |
| 2026-04-25 01:37 | 42.98705 | -81.30909 | 4188 ft | 164 kts | 137° |
| 2026-04-25 01:37 | 42.97739 | -81.30129 | 4361 ft | 163 kts | 168° |
| 2026-04-25 01:37 | 42.96677 | -81.29633 | 4651 ft | 161 kts | 171° |
| 2026-04-25 01:38 | 42.95572 | -81.29166 | 4750 ft | 170 kts | 172° |
| 2026-04-25 01:38 | 42.94415 | -81.28668 | 4769 ft | 177 kts | 169° |
| 2026-04-25 01:38 | 42.93299 | -81.28153 | 4761 ft | 169 kts | 170° |